Lery, Canada
Current Conditions -  °F | °C
As of 8:00 AM on Wednesday 22 Oct 2014 (Local Time) from CYUL Reporting Station
Overcast Overcast  
Wind Chill: 37°   Ceiling: 3400
Heat Index: 45°   Visibility: 12mi
Dew Point: 36°   Wind: 20mph
Humidity: 71%   Direction: 20°NNE
Pressure: 30.25"   Gusts: NA
Location:  45.33°N, 73.82°W
Report Text: CYUL 221200Z 02017KT 12SM FEW020 OVC034 07/02 A3025 RMK SC1SC7 SLP246
Loading
Personal Weather Stations






























Interactive Weather Map
Tropical Storm Tracking
New forecast layout! Learn more

10-Day Weather Forecast

Advertisements
Track Severe Weather on mobile